Time;durP1;ratioP1;P1;durP2;ratioP2;P2;SDS_P1;SDS_P2;PMS_P1;PMS_P2;Temp;Humidity;BMP_temperature;BMP_pressure;BME280_temperature;BME280_humidity;BME280_pressure;Samples;Min_cycle;Max_cycle;Signal;HPM_P1;HPM_P2
2024/01/13 00:01:45;;;;;;;51.83;20.05;;;;;;;0.08;100.00;101515.25;10442907;28;20047;-78
2024/01/13 00:06:47;;;;;;;74.88;28.60;;;;;;;0.32;100.00;101507.72;10450098;28;20055;-78
2024/01/13 00:11:52;;;;;;;52.95;21.70;;;;;;;0.21;100.00;101507.06;10433781;28;21212;-80
2024/01/13 00:16:55;;;;;;;62.97;25.23;;;;;;;0.19;100.00;101508.88;10445201;28;20063;-79
2024/01/13 00:21:58;;;;;;;62.00;24.77;;;;;;;0.06;100.00;101501.19;10452976;28;20052;-79
2024/01/13 00:27:02;;;;;;;49.15;19.75;;;;;;;0.21;100.00;101485.94;10445318;28;20044;-79
2024/01/13 00:32:06;;;;;;;34.42;15.85;;;;;;;0.09;100.00;101481.78;10451344;28;20060;-79
2024/01/13 00:37:11;;;;;;;49.47;19.85;;;;;;;0.30;100.00;101480.44;10446252;28;20052;-79
2024/01/13 00:42:16;;;;;;;47.60;20.90;;;;;;;0.22;100.00;101479.72;10445997;28;20150;-78
2024/01/13 00:47:19;;;;;;;36.03;15.18;;;;;;;0.30;100.00;101486.63;10445456;28;20123;-79
2024/01/13 00:52:22;;;;;;;46.42;20.23;;;;;;;0.47;100.00;101480.13;10450550;28;20128;-79
2024/01/13 00:57:26;;;;;;;33.33;14.85;;;;;;;0.35;100.00;101478.59;10440935;28;20052;-79
2024/01/13 01:02:29;;;;;;;41.22;17.55;;;;;;;0.52;100.00;101471.19;10440371;28;20490;-79
2024/01/13 01:07:33;;;;;;;42.22;18.27;;;;;;;0.45;100.00;101477.50;10453493;28;20049;-78
2024/01/13 01:12:37;;;;;;;38.88;15.90;;;;;;;0.44;100.00;101473.13;10460427;28;20091;-78
2024/01/13 01:17:40;;;;;;;40.85;18.45;;;;;;;0.12;100.00;101479.06;10452486;28;20301;-79
2024/01/13 01:22:43;;;;;;;40.72;18.33;;;;;;;0.29;100.00;101473.44;10443956;28;20048;-79
2024/01/13 01:27:48;;;;;;;37.45;17.88;;;;;;;0.12;100.00;101469.38;10438240;28;20052;-79
2024/01/13 01:32:51;;;;;;;34.38;15.68;;;;;;;0.23;100.00;101455.06;10444322;28;20059;-78
2024/01/13 01:37:54;;;;;;;34.00;15.70;;;;;;;0.17;100.00;101453.44;10434218;28;20066;-77
2024/01/13 01:42:58;;;;;;;32.15;14.38;;;;;;;0.29;100.00;101436.44;10435608;28;20359;-80
2024/01/13 01:48:07;;;;;;;30.08;13.07;;;;;;;0.28;100.00;101440.00;10438728;28;20037;-78
2024/01/13 01:53:17;;;;;;;33.10;15.90;;;;;;;0.28;100.00;101429.41;10444222;28;20056;-78
2024/01/13 01:58:21;;;;;;;33.90;16.75;;;;;;;0.47;100.00;101425.47;10435044;28;21242;-79
2024/01/13 02:03:34;;;;;;;27.60;13.05;;;;;;;0.15;100.00;101428.78;10437396;28;20045;-78
2024/01/13 02:08:37;;;;;;;29.65;13.93;;;;;;;0.11;100.00;101428.00;10438411;28;20064;-77
2024/01/13 02:13:47;;;;;;;24.13;12.70;;;;;;;0.23;100.00;101404.84;10431946;28;20059;-79
2024/01/13 02:18:50;;;;;;;28.35;14.20;;;;;;;0.21;100.00;101396.09;10437067;28;20062;-79
2024/01/13 02:23:55;;;;;;;25.23;11.38;;;;;;;0.02;100.00;101398.25;10448671;28;20056;-79
2024/01/13 02:28:58;;;;;;;27.13;13.40;;;;;;;-0.06;100.00;101377.25;10448925;28;20044;-79
2024/01/13 02:34:01;;;;;;;29.35;14.10;;;;;;;0.24;100.00;101372.22;10442236;28;20045;-78
2024/01/13 02:39:06;;;;;;;24.58;12.57;;;;;;;0.18;100.00;101375.88;10451549;28;20044;-78
2024/01/13 02:44:09;;;;;;;29.80;14.95;;;;;;;0.21;100.00;101362.59;10444671;28;20559;-79
2024/01/13 02:49:13;;;;;;;31.30;16.27;;;;;;;0.27;100.00;101361.56;10451449;28;20055;-78
2024/01/13 02:54:18;;;;;;;25.13;13.80;;;;;;;0.49;100.00;101348.72;10451657;28;20140;-79
2024/01/13 02:59:21;;;;;;;29.13;14.05;;;;;;;0.37;100.00;101341.97;10442653;28;20444;-80
2024/01/13 03:04:24;;;;;;;24.38;11.82;;;;;;;0.15;100.00;101338.94;10447425;28;20048;-78
2024/01/13 03:09:28;;;;;;;25.98;12.68;;;;;;;0.44;100.00;101319.78;10446651;28;20182;-80
2024/01/13 03:14:31;;;;;;;19.83;10.48;;;;;;;0.10;100.00;101311.75;10449815;28;20048;-80
2024/01/13 03:19:34;;;;;;;23.65;11.23;;;;;;;0.15;100.00;101304.59;10443487;28;20051;-80
2024/01/13 03:24:41;;;;;;;17.42;9.75;;;;;;;0.18;100.00;101301.88;10472926;28;20123;-79
2024/01/13 03:29:43;;;;;;;21.13;10.82;;;;;;;0.39;100.00;101295.22;10447500;28;20049;-79
2024/01/13 03:34:46;;;;;;;19.05;9.82;;;;;;;-0.04;100.00;101298.88;10455221;28;20051;-79
2024/01/13 03:39:51;;;;;;;15.75;8.77;;;;;;;0.07;100.00;101288.91;10458903;28;20156;-79
2024/01/13 03:44:54;;;;;;;20.00;10.27;;;;;;;0.19;100.00;101292.19;10438315;28;20052;-79
2024/01/13 03:49:57;;;;;;;15.82;9.15;;;;;;;0.26;100.00;101283.22;10447269;28;20139;-80
2024/01/13 03:55:02;;;;;;;15.48;8.43;;;;;;;0.33;100.00;101274.22;10449677;28;20423;-78
2024/01/13 04:00:06;;;;;;;20.30;10.77;;;;;;;0.29;100.00;101278.72;10440981;28;20084;-80
2024/01/13 04:05:09;;;;;;;19.60;10.15;;;;;;;-0.06;100.00;101277.75;10443522;28;20054;-80
2024/01/13 04:10:14;;;;;;;18.95;9.10;;;;;;;0.25;100.00;101266.50;10452658;28;20045;-80
2024/01/13 04:15:17;;;;;;;17.50;9.38;;;;;;;0.14;100.00;101279.09;10447822;28;20049;-80
2024/01/13 04:20:20;;;;;;;17.17;9.68;;;;;;;0.21;100.00;101279.81;10438601;28;20055;-78
2024/01/13 04:25:25;;;;;;;17.60;9.85;;;;;;;0.28;100.00;101276.97;10450760;28;20114;-80
2024/01/13 04:30:28;;;;;;;13.65;8.07;;;;;;;-0.04;100.00;101268.94;10444217;28;20055;-79
2024/01/13 04:35:32;;;;;;;18.50;9.40;;;;;;;0.08;100.00;101253.69;10444936;28;20491;-80
2024/01/13 04:40:37;;;;;;;15.57;7.65;;;;;;;0.06;100.00;101250.19;10449505;28;20055;-80
2024/01/13 04:45:40;;;;;;;15.88;7.53;;;;;;;-0.09;100.00;101255.81;10432829;28;20053;-80
2024/01/13 04:50:43;;;;;;;13.77;7.30;;;;;;;0.07;100.00;101251.94;10446196;28;20528;-80
2024/01/13 04:55:47;;;;;;;20.50;10.15;;;;;;;0.27;100.00;101238.22;10448281;28;20071;-80
2024/01/13 05:00:50;;;;;;;14.50;8.65;;;;;;;-0.06;100.00;101250.47;10452908;28;20064;-79
2024/01/13 05:05:53;;;;;;;15.10;8.82;;;;;;;0.04;100.00;101241.44;10445391;28;20044;-79
2024/01/13 05:10:58;;;;;;;14.13;7.28;;;;;;;0.03;100.00;101222.97;10450898;28;20455;-79
2024/01/13 05:16:01;;;;;;;11.93;6.93;;;;;;;-0.08;100.00;101223.25;10441121;28;20569;-78
2024/01/13 05:21:04;;;;;;;18.48;10.02;;;;;;;0.26;100.00;101223.28;10455703;28;20040;-79
2024/01/13 05:26:08;;;;;;;17.33;9.88;;;;;;;0.08;100.00;101227.25;10450976;28;20131;-80
2024/01/13 05:31:11;;;;;;;16.17;9.73;;;;;;;0.14;100.00;101213.91;10440214;28;20041;-80
2024/01/13 05:36:16;;;;;;;15.60;8.18;;;;;;;0.01;100.00;101208.94;10477396;28;20057;-80
2024/01/13 05:41:21;;;;;;;14.65;9.32;;;;;;;0.11;100.00;101223.66;10451228;28;20047;-80
2024/01/13 05:46:24;;;;;;;15.80;8.00;;;;;;;-0.12;100.00;101221.56;10452597;28;20122;-80
2024/01/13 05:51:28;;;;;;;13.25;8.13;;;;;;;0.16;100.00;101217.38;10439472;28;20056;-80
2024/01/13 05:56:32;;;;;;;18.00;9.48;;;;;;;-0.02;100.00;101209.03;10447265;28;20052;-78
2024/01/13 06:01:35;;;;;;;15.65;9.70;;;;;;;0.03;100.00;101201.81;10449054;28;20072;-79
2024/01/13 06:06:38;;;;;;;11.23;6.38;;;;;;;-0.15;100.00;101184.66;10445738;28;20052;-79
2024/01/13 06:11:43;;;;;;;14.00;7.80;;;;;;;-0.11;100.00;101175.75;10455347;28;20186;-79
2024/01/13 06:16:46;;;;;;;21.17;10.43;;;;;;;0.33;100.00;101173.78;10457220;28;20057;-79
2024/01/13 06:21:49;;;;;;;17.95;8.93;;;;;;;0.20;100.00;101172.38;10448153;28;20048;-78
2024/01/13 06:26:53;;;;;;;17.08;9.25;;;;;;;0.29;100.00;101174.78;10451610;28;20052;-80
2024/01/13 06:31:56;;;;;;;22.50;11.90;;;;;;;0.33;100.00;101171.13;10453853;28;20048;-79
2024/01/13 06:36:59;;;;;;;23.80;12.25;;;;;;;0.43;100.00;101159.41;10480260;28;20174;-79
2024/01/13 06:42:06;;;;;;;24.48;13.23;;;;;;;0.51;100.00;101159.22;10456657;28;20055;-79
2024/01/13 06:47:09;;;;;;;27.85;13.55;;;;;;;0.27;100.00;101164.22;10455271;28;20045;-79
2024/01/13 06:52:12;;;;;;;26.77;14.40;;;;;;;0.04;100.00;101138.41;10452027;28;20121;-79
2024/01/13 06:57:17;;;;;;;23.55;13.38;;;;;;;0.24;100.00;101116.75;10498928;28;20389;-79
2024/01/13 07:02:20;;;;;;;16.35;8.77;;;;;;;-0.34;100.00;101099.72;10450563;28;20051;-79
2024/01/13 07:07:23;;;;;;;23.23;13.38;;;;;;;0.07;100.00;101077.56;10453724;28;21258;-79
2024/01/13 07:12:27;;;;;;;21.83;11.27;;;;;;;0.15;100.00;101080.00;10440745;28;20049;-80
2024/01/13 07:17:30;;;;;;;28.95;15.25;;;;;;;0.24;100.00;101069.16;10439386;28;20040;-80
2024/01/13 07:22:34;;;;;;;24.25;13.30;;;;;;;0.12;100.00;101051.88;10477561;28;20045;-80
2024/01/13 07:27:38;;;;;;;36.97;17.15;;;;;;;0.37;100.00;101030.06;10499380;28;20048;-80
2024/01/13 07:32:41;;;;;;;24.40;13.63;;;;;;;0.10;100.00;101031.69;10498541;28;20059;-80
2024/01/13 07:37:44;;;;;;;31.58;18.30;;;;;;;0.30;100.00;101037.31;10485645;28;20050;-80
2024/01/13 07:42:49;;;;;;;40.90;21.55;;;;;;;0.70;100.00;101064.38;10497073;28;20059;-79
2024/01/13 07:47:52;;;;;;;42.58;20.75;;;;;;;0.13;100.00;101035.09;10498620;28;20032;-79
2024/01/13 07:52:55;;;;;;;35.92;19.20;;;;;;;0.21;100.00;101021.69;10457674;28;20048;-80
2024/01/13 07:58:00;;;;;;;41.15;20.92;;;;;;;0.54;100.00;101027.78;10447678;28;20057;-78
2024/01/13 08:03:04;;;;;;;44.22;21.77;;;;;;;0.39;100.00;101021.19;10454715;28;20056;-79
2024/01/13 08:08:07;;;;;;;28.25;14.77;;;;;;;0.16;100.00;101007.72;10453724;28;20045;-80
2024/01/13 08:13:11;;;;;;;35.67;18.25;;;;;;;0.14;100.00;101018.38;10453764;28;20415;-79
2024/01/13 08:18:14;;;;;;;40.63;21.70;;;;;;;0.44;100.00;101004.31;10488589;28;20072;-79
2024/01/13 08:23:18;;;;;;;44.03;23.23;;;;;;;0.52;100.00;101016.41;10449642;28;20048;-80
2024/01/13 08:28:22;;;;;;;44.60;23.25;;;;;;;0.45;100.00;101020.13;10455952;28;20048;-79
2024/01/13 08:33:25;;;;;;;48.70;25.02;;;;;;;0.82;100.00;101021.69;10452327;28;20057;-79
2024/01/13 08:38:28;;;;;;;40.17;20.25;;;;;;;0.50;100.00;101001.50;10456736;28;20059;-78
2024/01/13 08:43:33;;;;;;;41.47;20.90;;;;;;;0.45;100.00;100998.13;10470608;28;20087;-79
2024/01/13 08:48:36;;;;;;;29.73;15.93;;;;;;;0.56;100.00;100998.69;10477457;28;20055;-78
2024/01/13 08:53:39;;;;;;;31.35;16.73;;;;;;;0.08;100.00;101017.66;10441680;28;20052;-79
2024/01/13 08:58:43;;;;;;;33.47;18.10;;;;;;;0.59;100.00;100999.44;10451430;28;20057;-79
2024/01/13 09:03:47;;;;;;;34.25;18.42;;;;;;;0.52;100.00;100995.25;10441913;28;20061;-80
2024/01/13 09:08:50;;;;;;;24.70;12.75;;;;;;;0.47;100.00;100977.81;10464928;28;20439;-78
2024/01/13 09:13:55;;;;;;;13.85;8.35;;;;;;;0.30;100.00;100965.94;10444337;28;20442;-80
2024/01/13 09:18:57;;;;;;;20.35;11.38;;;;;;;0.60;100.00;100980.03;10472056;28;20057;-80
2024/01/13 09:24:01;;;;;;;31.73;16.48;;;;;;;0.89;100.00;100983.56;10481183;28;20123;-79
2024/01/13 09:29:05;;;;;;;26.05;15.02;;;;;;;0.71;100.00;100982.31;10473057;28;20145;-80
2024/01/13 09:34:09;;;;;;;28.85;14.75;;;;;;;0.56;100.00;100985.44;10456790;28;20059;-79
2024/01/13 09:39:15;;;;;;;23.00;12.27;;;;;;;0.50;100.00;100980.34;10483395;28;20309;-79
2024/01/13 09:44:23;;;;;;;25.33;15.20;;;;;;;0.52;100.00;100960.00;10487807;28;20052;-79
2024/01/13 09:49:29;;;;;;;21.35;11.25;;;;;;;0.55;100.00;100936.13;10467543;28;21240;-80
2024/01/13 09:54:35;;;;;;;26.13;14.25;;;;;;;0.59;100.00;100940.41;10462710;28;20041;-79
2024/01/13 09:59:41;;;;;;;32.58;17.08;;;;;;;0.27;100.00;100928.16;10484588;28;20037;-80
2024/01/13 10:04:45;;;;;;;21.38;10.27;;;;;;;0.32;100.00;100939.47;10495607;28;20051;-80
2024/01/13 10:09:48;;;;;;;23.40;13.75;;;;;;;0.32;100.00;100931.53;10477108;28;20803;-80
2024/01/13 10:14:53;;;;;;;26.48;13.50;;;;;;;0.07;100.00;100903.19;10476431;28;20505;-79
2024/01/13 10:19:57;;;;;;;23.08;12.18;;;;;;;0.37;100.00;100906.69;10473573;28;20063;-80
2024/01/13 10:25:01;;;;;;;31.00;16.25;;;;;;;0.22;100.00;100890.44;10467826;28;20041;-80
2024/01/13 10:30:07;;;;;;;28.52;14.90;;;;;;;0.43;100.00;100899.50;10460681;28;20086;-80
2024/01/13 10:35:17;;;;;;;17.77;10.07;;;;;;;0.16;100.00;100887.09;10440007;28;20048;-80
2024/01/13 10:40:20;;;;;;;31.23;16.00;;;;;;;0.40;100.00;100889.88;10448085;28;20094;-79
2024/01/13 10:45:25;;;;;;;32.75;15.13;;;;;;;0.35;100.00;100884.72;10467021;28;20527;-80
2024/01/13 10:50:30;;;;;;;44.10;24.40;;;;;;;0.55;100.00;100876.19;10463442;28;20053;-80
2024/01/13 10:55:35;;;;;;;41.08;22.45;;;;;;;0.51;100.00;100877.19;10468441;28;20045;-80
2024/01/13 11:00:40;;;;;;;37.70;17.35;;;;;;;0.63;100.00;100875.06;10473402;28;20076;-80
2024/01/13 11:05:43;;;;;;;27.10;13.43;;;;;;;0.28;100.00;100872.63;10479576;28;20052;-79
2024/01/13 11:10:50;;;;;;;36.22;17.02;;;;;;;0.33;100.00;100848.69;10460097;28;20051;-80
2024/01/13 11:15:59;;;;;;;47.58;21.67;;;;;;;0.62;100.00;100834.56;10457822;28;20056;-80
2024/01/13 11:21:04;;;;;;;32.30;16.60;;;;;;;0.32;100.00;100828.47;10451765;28;20049;-80
2024/01/13 11:26:09;;;;;;;48.47;28.00;;;;;;;0.53;100.00;100819.00;10471464;28;20055;-80
2024/01/13 11:31:38;;;;;;;35.05;19.42;;;;;;;0.61;100.00;100814.31;10462465;28;20055;-79
2024/01/13 11:36:50;;;;;;;38.20;20.63;;;;;;;0.69;100.00;100807.00;10473621;28;20375;-78
2024/01/13 11:41:55;;;;;;;40.42;21.75;;;;;;;0.49;100.00;100790.91;10474199;28;20593;-78
2024/01/13 11:47:01;;;;;;;30.83;17.65;;;;;;;0.36;100.00;100788.69;10500869;28;20044;-81
2024/01/13 11:52:30;;;;;;;31.75;16.40;;;;;;;0.54;100.00;100789.00;10498280;28;20164;-78
2024/01/13 11:57:37;;;;;;;24.98;14.02;;;;;;;0.45;100.00;100768.16;10501979;28;20052;-79
2024/01/13 12:02:47;;;;;;;34.15;18.15;;;;;;;0.78;100.00;100769.66;10467095;28;20520;-80
2024/01/13 12:07:51;;;;;;;26.27;16.02;;;;;;;0.71;100.00;100772.56;10460807;28;20048;-80
2024/01/13 12:13:01;;;;;;;30.42;17.77;;;;;;;1.16;100.00;100748.06;10473498;28;20075;-80
2024/01/13 12:18:06;;;;;;;26.15;13.82;;;;;;;0.85;100.00;100743.88;10474773;28;20155;-80
2024/01/13 12:23:09;;;;;;;28.35;14.90;;;;;;;0.76;100.00;100739.75;10457631;28;20067;-80
2024/01/13 12:28:12;;;;;;;21.77;12.38;;;;;;;0.72;100.00;100735.50;10480155;28;20048;-81
2024/01/13 12:33:17;;;;;;;23.30;13.85;;;;;;;0.86;100.00;100742.94;10467602;28;20518;-79
2024/01/13 12:38:22;;;;;;;22.65;13.98;;;;;;;1.11;100.00;100727.06;10454261;28;20044;-81
2024/01/13 12:43:28;;;;;;;20.73;11.88;;;;;;;0.84;100.00;100705.97;10457609;28;20053;-79
2024/01/13 12:48:34;;;;;;;19.85;11.70;;;;;;;0.83;100.00;100703.38;10424517;28;20412;-79
2024/01/13 12:53:53;;;;;;;19.02;11.35;;;;;;;0.96;100.00;100691.44;10418115;28;20055;-79
2024/01/13 12:58:58;;;;;;;12.68;7.03;;;;;;;0.73;100.00;100680.81;10459871;28;20048;-78
2024/01/13 13:04:04;;;;;;;17.83;9.70;;;;;;;0.91;100.00;100668.72;10459987;28;20052;-80
2024/01/13 13:09:10;;;;;;;20.65;11.18;;;;;;;0.64;100.00;100654.72;10440238;28;20045;-79
2024/01/13 13:14:14;;;;;;;21.08;10.25;;;;;;;0.60;100.00;100646.91;10449379;28;20715;-81
2024/01/13 13:19:18;;;;;;;29.98;14.55;;;;;;;0.63;100.00;100660.91;10449363;28;20053;-80
2024/01/13 13:24:22;;;;;;;26.65;13.43;;;;;;;0.84;100.00;100654.84;10451542;28;20044;-81
2024/01/13 13:29:25;;;;;;;23.50;10.95;;;;;;;0.70;100.00;100663.28;10449149;28;20053;-80
2024/01/13 13:34:30;;;;;;;31.73;15.75;;;;;;;0.90;100.00;100646.69;10440086;28;20048;-82
2024/01/13 13:39:34;;;;;;;23.30;11.90;;;;;;;0.73;100.00;100627.94;10460717;28;20137;-80
2024/01/13 13:44:38;;;;;;;29.85;14.90;;;;;;;0.87;100.00;100623.00;10438922;28;20045;-79
2024/01/13 13:49:42;;;;;;;33.78;16.13;;;;;;;0.83;100.00;100622.25;10449329;28;20052;-82
2024/01/13 13:54:45;;;;;;;34.38;17.15;;;;;;;0.92;100.00;100594.59;10447892;28;20109;-82
2024/01/13 13:59:48;;;;;;;32.03;13.00;;;;;;;0.83;100.00;100600.22;10450414;28;20139;-81
2024/01/13 14:04:53;;;;;;;27.58;14.88;;;;;;;0.75;100.00;100589.06;10444644;28;20171;-80
2024/01/13 14:10:15;;;;;;;35.40;15.90;;;;;;;0.72;100.00;100597.13;10442269;28;20094;-78
2024/01/13 14:15:18;;;;;;;33.08;16.20;;;;;;;0.88;100.00;100582.41;10436888;28;20052;-81
2024/01/13 14:20:23;;;;;;;35.42;16.48;;;;;;;1.06;100.00;100580.84;10443316;28;20091;-78
2024/01/13 14:25:26;;;;;;;34.67;16.20;;;;;;;0.83;100.00;100576.44;10456842;28;21161;-81
2024/01/13 14:30:29;;;;;;;40.60;18.80;;;;;;;0.77;100.00;100555.50;10474888;28;20133;-81
2024/01/13 14:35:33;;;;;;;30.13;13.30;;;;;;;0.64;100.00;100560.38;10453529;28;20435;-81
2024/01/13 14:40:38;;;;;;;33.22;15.68;;;;;;;0.54;100.00;100537.84;10460187;28;20172;-79
2024/01/13 14:45:41;;;;;;;42.95;17.25;;;;;;;0.68;100.00;100543.47;10474327;28;20140;-80
2024/01/13 14:50:45;;;;;;;41.28;20.58;;;;;;;0.44;100.00;100518.84;10456494;28;20130;-81
2024/01/13 14:55:48;;;;;;;40.78;18.00;;;;;;;1.00;100.00;100531.66;10449751;28;20711;-80
2024/01/13 15:00:51;;;;;;;42.40;19.42;;;;;;;0.53;100.00;100521.13;10462329;28;20036;-81
2024/01/13 15:05:56;;;;;;;30.38;14.07;;;;;;;0.64;100.00;100517.22;10450570;28;21050;-80
2024/01/13 15:10:59;;;;;;;42.17;19.05;;;;;;;0.81;100.00;100514.78;10455923;28;20052;-81
2024/01/13 15:16:02;;;;;;;37.00;13.88;;;;;;;0.80;100.00;100510.44;10471565;28;20278;-81
2024/01/13 15:21:07;;;;;;;40.08;17.67;;;;;;;0.71;100.00;100508.13;10455683;28;20044;-79
2024/01/13 15:26:10;;;;;;;53.35;21.95;;;;;;;0.61;100.00;100500.56;10462381;28;20159;-79
2024/01/13 15:31:13;;;;;;;26.15;12.73;;;;;;;0.56;100.00;100505.16;10457710;28;20113;-81
2024/01/13 15:36:17;;;;;;;37.17;17.23;;;;;;;0.60;100.00;100500.59;10464839;28;20044;-81
2024/01/13 15:41:21;;;;;;;40.85;17.58;;;;;;;0.68;100.00;100502.97;10451926;28;20048;-81
2024/01/13 15:46:24;;;;;;;45.70;20.35;;;;;;;0.52;100.00;100500.91;10455724;28;20056;-80
2024/01/13 15:51:29;;;;;;;38.92;17.88;;;;;;;0.35;100.00;100511.22;10453683;28;20060;-81
2024/01/13 15:56:32;;;;;;;52.70;21.25;;;;;;;0.48;100.00;100511.66;10461633;28;20075;-80
2024/01/13 16:01:35;;;;;;;47.63;19.38;;;;;;;0.46;100.00;100487.03;10453108;28;20056;-81
2024/01/13 16:06:39;;;;;;;47.78;21.67;;;;;;;0.44;100.00;100480.94;10450630;28;20066;-80
2024/01/13 16:11:42;;;;;;;47.90;21.92;;;;;;;0.25;100.00;100497.50;10452200;28;20746;-81
2024/01/13 16:16:45;;;;;;;47.10;21.20;;;;;;;0.48;100.00;100498.44;10450890;28;20078;-80
2024/01/13 16:21:50;;;;;;;47.60;22.10;;;;;;;0.39;100.00;100478.50;10450762;28;21134;-81
2024/01/13 16:26:53;;;;;;;46.17;20.20;;;;;;;0.33;100.00;100484.88;10461901;28;20053;-80
2024/01/13 16:31:56;;;;;;;38.50;18.27;;;;;;;0.58;100.00;100495.38;10446856;28;20056;-81
2024/01/13 16:37:00;;;;;;;34.38;15.63;;;;;;;0.43;100.00;100473.94;10444763;28;20071;-81
2024/01/13 16:42:04;;;;;;;46.67;17.95;;;;;;;0.38;100.00;100468.81;10475008;28;20032;-79
2024/01/13 16:47:07;;;;;;;29.15;13.65;;;;;;;0.23;100.00;100475.56;10446693;28;20048;-82
2024/01/13 16:52:12;;;;;;;41.15;15.43;;;;;;;0.15;100.00;100467.03;10447376;28;20041;-81
2024/01/13 16:57:16;;;;;;;43.50;16.95;;;;;;;0.14;100.00;100458.25;10458969;28;20049;-81
2024/01/13 17:02:19;;;;;;;47.60;21.83;;;;;;;0.58;100.00;100460.16;10461966;28;20066;-80
2024/01/13 17:07:39;;;;;;;37.78;15.15;;;;;;;0.26;100.00;100449.00;10457675;28;20044;-81
2024/01/13 17:12:42;;;;;;;42.92;18.13;;;;;;;0.16;100.00;100455.53;10455154;28;20178;-81
2024/01/13 17:17:50;;;;;;;37.70;15.50;;;;;;;0.20;100.00;100461.59;10453534;28;20052;-81
2024/01/13 17:22:56;;;;;;;55.40;22.75;;;;;;;0.45;100.00;100449.19;10453161;28;20615;-80
2024/01/13 17:27:59;;;;;;;50.40;21.52;;;;;;;0.41;100.00;100462.56;10453027;28;20056;-81
2024/01/13 17:33:03;;;;;;;46.20;18.17;;;;;;;0.11;100.00;100445.19;10451800;28;20815;-81
2024/01/13 17:38:08;;;;;;;50.97;21.33;;;;;;;0.50;100.00;100449.88;10438578;28;20045;-81
2024/01/13 17:43:11;;;;;;;24.60;10.32;;;;;;;0.34;100.00;100444.31;10445513;28;20534;-79
2024/01/13 17:48:14;;;;;;;37.60;14.85;;;;;;;0.58;100.00;100463.66;10425908;28;20049;-81
2024/01/13 17:53:19;;;;;;;45.10;19.75;;;;;;;0.45;100.00;100448.34;10452212;28;20048;-80
2024/01/13 17:58:22;;;;;;;42.95;18.88;;;;;;;0.37;100.00;100457.41;10445016;28;20048;-81
2024/01/13 18:03:25;;;;;;;35.55;14.65;;;;;;;0.32;100.00;100477.00;10455767;28;20052;-81
2024/01/13 18:08:31;;;;;;;31.15;12.57;;;;;;;0.71;100.00;100471.97;10456652;28;20052;-81
2024/01/13 18:13:34;;;;;;;35.10;16.20;;;;;;;0.46;100.00;100465.91;10456097;28;20211;-80
2024/01/13 18:18:37;;;;;;;32.33;12.27;;;;;;;0.59;100.00;100464.50;10449552;28;20048;-81
2024/01/13 18:23:44;;;;;;;26.92;10.70;;;;;;;0.46;100.00;100460.63;10451457;28;20052;-79
2024/01/13 18:28:47;;;;;;;35.35;14.40;;;;;;;0.78;100.00;100441.72;10454566;28;20075;-80
2024/01/13 18:33:50;;;;;;;31.27;13.02;;;;;;;0.27;100.00;100450.72;10447306;28;20571;-77
2024/01/13 18:38:55;;;;;;;18.20;8.35;;;;;;;0.60;100.00;100453.00;10451674;28;20048;-82
2024/01/13 18:43:58;;;;;;;22.77;11.30;;;;;;;0.21;100.00;100435.09;10471634;28;20082;-80
2024/01/13 18:49:01;;;;;;;24.15;10.23;;;;;;;0.53;100.00;100436.53;10464376;28;20061;-80
2024/01/13 18:54:07;;;;;;;24.33;11.30;;;;;;;0.45;100.00;100416.63;10481285;28;20044;-80
2024/01/13 18:59:10;;;;;;;17.98;8.32;;;;;;;0.07;100.00;100411.84;10472566;28;21350;-80
2024/01/13 19:04:13;;;;;;;20.30;10.00;;;;;;;0.24;100.00;100416.50;10441030;28;20063;-79
2024/01/13 19:09:18;;;;;;;22.98;11.52;;;;;;;0.25;100.00;100391.81;10452118;28;20431;-81
2024/01/13 19:14:22;;;;;;;18.73;8.20;;;;;;;0.44;100.00;100389.31;10441362;28;20051;-81
2024/01/13 19:19:24;;;;;;;19.17;9.00;;;;;;;0.11;100.00;100402.00;10458474;28;20360;-81
2024/01/13 19:24:33;;;;;;;20.88;8.35;;;;;;;0.04;100.00;100397.91;10460176;28;20052;-79
2024/01/13 19:29:37;;;;;;;22.10;9.32;;;;;;;0.11;100.00;100386.16;10474752;28;20055;-79
2024/01/13 19:34:41;;;;;;;27.50;13.00;;;;;;;0.11;100.00;100376.50;10452334;28;20044;-80
2024/01/13 19:39:45;;;;;;;35.33;17.70;;;;;;;0.00;100.00;100352.25;10482483;28;20046;-79
2024/01/13 19:44:49;;;;;;;28.38;11.02;;;;;;;0.15;100.00;100359.59;10481009;28;20891;-82
2024/01/13 19:49:52;;;;;;;32.58;14.90;;;;;;;0.05;100.00;100344.16;10487299;28;20074;-79
2024/01/13 19:54:57;;;;;;;44.78;20.13;;;;;;;0.37;100.00;100341.13;10509967;28;20039;-79
2024/01/13 20:00:00;;;;;;;31.30;12.98;;;;;;;-0.03;100.00;100333.00;10497888;28;20071;-81
2024/01/13 20:05:03;;;;;;;28.35;13.10;;;;;;;0.23;100.00;100337.31;10494440;28;20052;-82
2024/01/13 20:10:09;;;;;;;28.63;11.60;;;;;;;0.26;100.00;100339.81;10499679;28;20731;-81
2024/01/13 20:15:14;;;;;;;37.10;13.85;;;;;;;0.24;100.00;100331.94;10507650;28;20103;-81
2024/01/13 20:20:19;;;;;;;37.28;15.40;;;;;;;0.07;100.00;100321.19;10500617;28;20178;-81
2024/01/13 20:25:23;;;;;;;34.65;14.88;;;;;;;0.04;100.00;100326.59;10511781;28;20043;-82
2024/01/13 20:30:26;;;;;;;39.92;16.15;;;;;;;0.33;100.00;100313.09;10494638;28;20186;-81
2024/01/13 20:35:30;;;;;;;35.67;14.43;;;;;;;0.30;100.00;100304.41;10499069;28;20105;-81
2024/01/13 20:40:37;;;;;;;36.35;14.00;;;;;;;0.15;100.00;100301.47;10495753;28;20040;-81
2024/01/13 20:45:40;;;;;;;37.75;13.77;;;;;;;0.02;100.00;100284.38;10498347;28;20052;-82
2024/01/13 20:50:43;;;;;;;32.53;13.77;;;;;;;0.14;100.00;100285.69;10501992;28;20043;-80
2024/01/13 20:55:48;;;;;;;42.45;15.77;;;;;;;0.25;100.00;100269.38;10505289;28;20185;-82
2024/01/13 21:00:51;;;;;;;46.95;19.95;;;;;;;0.02;100.00;100271.16;10480717;28;20040;-82
2024/01/13 21:05:54;;;;;;;33.47;12.55;;;;;;;0.29;100.00;100268.38;10518163;28;20123;-82
2024/01/13 21:11:00;;;;;;;59.78;22.65;;;;;;;0.39;100.00;100267.06;10518595;28;20075;-82
2024/01/13 21:16:05;;;;;;;52.47;20.10;;;;;;;0.50;100.00;100262.22;10509256;28;20039;-80
2024/01/13 21:21:08;;;;;;;50.70;19.25;;;;;;;0.34;100.00;100247.91;10499496;28;20486;-82
2024/01/13 21:26:15;;;;;;;44.78;17.25;;;;;;;0.24;100.00;100247.41;10507235;28;20048;-81
2024/01/13 21:31:19;;;;;;;57.72;23.98;;;;;;;0.53;100.00;100245.38;10504243;28;20048;-82
2024/01/13 21:36:23;;;;;;;48.10;20.67;;;;;;;0.36;100.00;100224.94;10518980;28;20043;-81
2024/01/13 21:41:28;;;;;;;59.53;20.85;;;;;;;0.67;100.00;100235.06;10520942;28;20047;-83
2024/01/13 21:46:31;;;;;;;60.38;23.05;;;;;;;0.72;100.00;100222.50;10515414;28;20044;-81
2024/01/13 21:51:34;;;;;;;36.90;14.23;;;;;;;0.70;100.00;100215.56;10523753;28;20052;-82
2024/01/13 21:56:38;;;;;;;55.47;19.67;;;;;;;0.81;100.00;100223.91;10518917;28;20047;-81
2024/01/13 22:01:41;;;;;;;44.05;14.48;;;;;;;0.54;100.00;100216.19;10532264;28;20059;-83
2024/01/13 22:06:44;;;;;;;35.40;12.50;;;;;;;0.44;100.00;100193.75;10506847;28;20048;-81
2024/01/13 22:11:49;;;;;;;33.30;12.25;;;;;;;0.60;100.00;100191.28;10518321;28;20058;-81
2024/01/13 22:16:52;;;;;;;31.05;11.40;;;;;;;0.21;100.00;100192.03;10518780;28;20048;-81
2024/01/13 22:21:56;;;;;;;32.65;11.95;;;;;;;0.30;100.00;100186.41;10522220;28;20051;-79
2024/01/13 22:27:01;;;;;;;38.17;14.68;;;;;;;0.62;100.00;100181.53;10503041;28;20149;-81
2024/01/13 22:32:04;;;;;;;28.17;11.63;;;;;;;0.24;100.00;100180.50;10507802;28;20542;-81
2024/01/13 22:37:07;;;;;;;40.72;16.63;;;;;;;0.49;100.00;100181.19;10519361;28;20071;-82
2024/01/13 22:42:12;;;;;;;31.27;10.88;;;;;;;0.31;100.00;100179.34;10497226;28;20048;-82
2024/01/13 22:47:16;;;;;;;25.38;11.38;;;;;;;0.43;100.00;100168.22;10485162;28;20036;-81